Time;durP1;ratioP1;P1;durP2;ratioP2;P2;SDS_P1;SDS_P2;PMS_P1;PMS_P2;Temp;Humidity;BMP_temperature;BMP_pressure;BME280_temperature;BME280_humidity;BME280_pressure;Samples;Min_cycle;Max_cycle;Signal;HPM_P1;HPM_P2
2021/06/15 06:15:46;;;;;;;16.55;9.80;;;;;;;15.56;90.08;98301.28;1871717;76;23314;-67
2021/06/15 06:18:13;;;;;;;9.93;6.85;;;;;;;15.60;89.67;98301.42;1826990;77;20864;-68
2021/06/15 06:20:40;;;;;;;11.60;6.70;;;;;;;15.71;89.13;98305.41;1827231;78;21217;-68
2021/06/15 06:23:07;;;;;;;10.88;6.25;;;;;;;15.81;88.83;98297.55;1827833;78;20915;-70
2021/06/15 06:25:35;;;;;;;11.73;5.80;;;;;;;15.91;88.35;98298.05;1827389;78;20916;-70
2021/06/15 06:28:03;;;;;;;8.33;5.62;;;;;;;16.05;87.84;98294.64;1827708;78;20916;-67
2021/06/15 06:30:31;;;;;;;6.60;5.12;;;;;;;16.22;87.54;98290.59;1827509;78;21495;-67
2021/06/15 06:32:58;;;;;;;10.05;5.83;;;;;;;16.43;86.98;98296.92;1827580;78;21104;-65
2021/06/15 06:35:25;;;;;;;8.33;5.60;;;;;;;16.67;86.52;98296.98;1827716;78;21334;-64
2021/06/15 06:37:52;;;;;;;6.53;5.78;;;;;;;16.84;85.76;98296.36;1827762;78;20860;-66
2021/06/15 06:40:19;;;;;;;6.12;5.47;;;;;;;17.01;84.97;98286.05;1826971;78;21105;-67
2021/06/15 06:42:45;;;;;;;9.10;5.58;;;;;;;17.15;84.20;98287.97;1827561;78;20899;-66
2021/06/15 06:45:14;;;;;;;7.33;5.42;;;;;;;17.24;83.26;98286.02;1828011;78;20960;-66
2021/06/15 06:47:41;;;;;;;5.90;5.12;;;;;;;17.26;83.02;98278.39;1827442;78;21466;-67
2021/06/15 06:50:14;;;;;;;7.22;5.42;;;;;;;17.33;82.30;98281.38;1827702;78;20986;-68
2021/06/15 06:52:41;;;;;;;6.08;5.47;;;;;;;17.37;81.70;98281.50;1827802;78;20924;-67
2021/06/15 06:55:09;;;;;;;5.90;5.37;;;;;;;17.41;81.22;98281.87;1818604;77;20970;-65
2021/06/15 06:57:36;;;;;;;7.15;5.30;;;;;;;17.48;80.65;98278.08;1808577;78;21105;-68
2021/06/15 07:00:04;;;;;;;7.40;5.40;;;;;;;17.52;80.46;98281.74;1795239;80;20900;-66
2021/06/15 07:02:31;;;;;;;9.45;5.80;;;;;;;17.60;80.41;98277.41;1794903;80;20919;-68
2021/06/15 07:04:58;;;;;;;7.35;5.15;;;;;;;17.65;79.99;98267.17;1801218;77;20931;-66
2021/06/15 07:07:25;;;;;;;7.00;5.28;;;;;;;17.74;80.01;98267.91;1824170;78;21380;-67
2021/06/15 07:09:52;;;;;;;8.30;5.62;;;;;;;17.83;79.61;98267.83;1816117;77;21073;-69
2021/06/15 07:12:20;;;;;;;8.25;5.00;;;;;;;17.89;78.95;98271.15;1796333;77;20986;-67
2021/06/15 07:14:47;;;;;;;6.12;4.55;;;;;;;17.93;79.02;98263.94;1790511;79;21548;-66
2021/06/15 07:17:14;;;;;;;7.65;4.60;;;;;;;18.01;78.65;98272.56;1788500;79;20948;-66
2021/06/15 07:19:41;;;;;;;5.12;4.62;;;;;;;18.13;78.77;98262.59;1791017;78;21423;-67
2021/06/15 07:22:08;;;;;;;11.50;5.00;;;;;;;18.23;78.24;98266.80;1821966;77;21658;-67
2021/06/15 07:24:35;;;;;;;7.05;5.05;;;;;;;18.31;78.05;98261.84;1821364;77;20904;-67
2021/06/15 07:27:02;;;;;;;8.05;4.72;;;;;;;18.40;77.96;98256.58;1820024;77;20995;-67
2021/06/15 07:29:29;;;;;;;7.00;4.40;;;;;;;18.54;77.49;98254.94;1821114;77;21455;-67
2021/06/15 07:31:57;;;;;;;7.40;4.50;;;;;;;18.64;76.90;98253.72;1820760;78;20951;-66
2021/06/15 07:34:24;;;;;;;6.83;4.30;;;;;;;18.74;76.49;98247.31;1812480;78;21145;-66
2021/06/15 07:36:51;;;;;;;4.30;3.72;;;;;;;18.87;76.97;98244.83;1817392;78;20967;-65
2021/06/15 07:39:19;;;;;;;6.30;4.00;;;;;;;19.02;76.33;98246.89;1821551;78;20939;-71
2021/06/15 07:41:46;;;;;;;6.92;4.53;;;;;;;19.12;75.12;98247.01;1822059;77;20943;-66
2021/06/15 07:44:13;;;;;;;5.72;3.95;;;;;;;19.14;74.66;98240.67;1821854;77;21482;-66
2021/06/15 07:46:39;;;;;;;4.20;3.75;;;;;;;19.16;73.55;98243.03;1819244;77;21108;-65
2021/06/15 07:49:06;;;;;;;4.40;3.58;;;;;;;19.13;73.04;98233.08;1801678;78;21514;-67
2021/06/15 07:51:34;;;;;;;6.03;3.95;;;;;;;19.20;73.29;98233.06;1820232;78;20952;-67
2021/06/15 07:54:03;;;;;;;4.08;3.67;;;;;;;19.29;73.33;98231.05;1821114;77;20985;-66
2021/06/15 07:56:31;;;;;;;5.78;4.17;;;;;;;19.38;73.64;98224.95;1817537;77;21021;-64
2021/06/15 07:58:57;;;;;;;6.15;3.90;;;;;;;19.50;73.43;98223.58;1806138;77;21091;-66
2021/06/15 08:01:24;;;;;;;8.53;4.33;;;;;;;19.63;72.93;98227.84;1808758;78;20888;-68
2021/06/15 08:03:51;;;;;;;10.30;4.15;;;;;;;19.71;72.76;98226.94;1807732;78;21015;-63
2021/06/15 08:06:18;;;;;;;7.33;4.10;;;;;;;19.78;72.62;98229.86;1816302;78;21599;-64
2021/06/15 08:08:45;;;;;;;6.08;3.20;;;;;;;19.86;72.23;98227.55;1820818;77;21109;-66
2021/06/15 08:11:12;;;;;;;3.52;3.22;;;;;;;19.90;70.60;98229.83;1820784;78;21137;-65
2021/06/15 08:13:39;;;;;;;4.80;3.70;;;;;;;19.93;70.73;98222.31;1816676;78;20975;-65
2021/06/15 08:16:07;;;;;;;5.80;3.77;;;;;;;20.01;71.32;98214.59;1819917;78;20876;-67
2021/06/15 08:18:33;;;;;;;3.08;2.58;;;;;;;20.13;70.87;98217.27;1813617;78;20916;-66
2021/06/15 08:21:00;;;;;;;5.20;3.05;;;;;;;20.19;69.22;98213.15;1794881;80;20920;-65
2021/06/15 08:23:28;;;;;;;4.37;3.98;;;;;;;20.24;68.80;98203.98;1794806;79;21110;-67
2021/06/15 08:25:55;;;;;;;4.45;3.50;;;;;;;20.25;68.66;98209.09;1794774;80;20888;-65
2021/06/15 08:28:22;;;;;;;5.42;2.90;;;;;;;20.32;69.44;98212.00;1804581;78;21359;-68
2021/06/15 08:30:51;;;;;;;5.90;3.10;;;;;;;20.47;68.63;98215.86;1818983;77;20961;-67
2021/06/15 08:33:18;;;;;;;4.03;3.25;;;;;;;20.62;67.54;98219.74;1825645;78;21023;-67
2021/06/15 08:35:45;;;;;;;8.33;3.70;;;;;;;20.72;66.88;98211.06;1825538;78;21069;-67
2021/06/15 08:38:12;;;;;;;4.40;3.25;;;;;;;20.84;67.39;98209.63;1825384;78;20909;-67
2021/06/15 08:40:44;;;;;;;4.95;3.30;;;;;;;20.96;67.46;98211.66;1825455;78;21005;-68
2021/06/15 08:43:14;;;;;;;3.55;3.25;;;;;;;21.10;67.45;98211.27;1796406;78;21487;-68
2021/06/15 08:45:42;;;;;;;4.28;2.98;;;;;;;21.22;66.83;98212.50;1825738;78;20913;-68
2021/06/15 08:48:10;;;;;;;3.50;2.60;;;;;;;21.32;66.08;98216.05;1813116;78;20985;-68
2021/06/15 08:50:38;;;;;;;4.72;2.70;;;;;;;21.45;65.68;98212.08;1794654;79;21401;-67
2021/06/15 08:53:07;;;;;;;6.40;3.10;;;;;;;21.57;65.97;98213.32;1794843;80;20872;-68
2021/06/15 08:55:36;;;;;;;3.85;2.55;;;;;;;21.70;64.85;98205.78;1795025;79;21414;-65
2021/06/15 08:58:45;;;;;;;3.85;2.87;;;;;;;21.68;64.61;98210.24;1811828;78;21046;-70
2021/06/15 09:01:13;;;;;;;4.90;2.60;;;;;;;21.64;64.11;98212.11;1825749;78;21876;-67
2021/06/15 09:03:40;;;;;;;7.03;2.42;;;;;;;21.63;64.00;98207.80;1824997;78;20947;-66
2021/06/15 09:06:07;;;;;;;3.30;2.35;;;;;;;21.73;63.53;98206.44;1793667;78;21038;-62
2021/06/15 09:08:55;;;;;;;3.12;2.33;;;;;;;21.85;63.49;98201.45;1793586;79;21023;-65
2021/06/15 09:11:22;;;;;;;3.00;2.00;;;;;;;21.95;63.79;98207.70;1794490;80;21038;-63
2021/06/15 09:13:51;;;;;;;3.45;2.00;;;;;;;22.03;62.72;98208.05;1795068;79;20939;-65
2021/06/15 09:16:36;;;;;;;4.47;2.15;;;;;;;22.10;62.78;98209.55;1750606;80;21560;-65
2021/06/15 09:19:01;;;;;;;4.78;2.60;;;;;;;22.23;62.36;98205.53;1759551;81;21453;-64
2021/06/15 09:21:38;;;;;;;6.00;2.30;;;;;;;22.36;62.01;98207.73;1749917;80;21006;-66
2021/06/15 09:24:11;;;;;;;2.92;2.08;;;;;;;22.44;62.11;98200.47;1760118;81;20924;-66
2021/06/15 09:27:05;;;;;;;3.93;2.30;;;;;;;22.46;61.97;98207.72;1762805;79;21516;-67
2021/06/15 09:29:50;;;;;;;3.70;2.00;;;;;;;22.41;62.42;98208.01;1757098;81;21203;-61
2021/06/15 09:32:20;;;;;;;5.60;2.12;;;;;;;22.47;61.56;98197.79;1809164;79;20886;-65
2021/06/15 09:34:54;;;;;;;4.42;2.30;;;;;;;22.57;60.70;98199.70;1808913;79;20894;-65
2021/06/15 09:37:49;;;;;;;2.52;2.00;;;;;;;22.49;60.59;98200.17;1809041;79;20934;-65
2021/06/15 09:40:29;;;;;;;4.92;2.05;;;;;;;22.44;61.56;98200.47;1807043;79;21896;-65
2021/06/15 09:43:06;;;;;;;2.80;2.40;;;;;;;22.56;61.56;98205.77;1784087;79;21527;-65
2021/06/15 09:45:39;;;;;;;3.35;2.20;;;;;;;22.66;61.37;98201.67;1808589;79;20977;-67
2021/06/15 09:48:29;;;;;;;3.27;1.90;;;;;;;22.68;61.46;98198.77;1808894;79;21405;-65
2021/06/15 09:51:02;;;;;;;2.83;2.00;;;;;;;22.70;61.67;98200.58;1808884;79;20882;-66
2021/06/15 09:53:37;;;;;;;2.30;2.10;;;;;;;22.85;61.33;98198.85;1809169;79;21070;-65
2021/06/15 09:56:09;;;;;;;3.08;2.30;;;;;;;23.01;60.34;98198.16;1808907;79;20874;-65
2021/06/15 09:58:52;;;;;;;3.37;2.20;;;;;;;22.97;59.04;98193.20;1809304;79;20882;-67
2021/06/15 10:01:42;;;;;;;7.45;2.22;;;;;;;22.77;59.33;98193.88;1808816;79;20926;-69
2021/06/15 10:04:18;;;;;;;4.30;2.30;;;;;;;22.72;60.97;98194.74;1809217;79;20941;-67
2021/06/15 10:06:50;;;;;;;3.30;2.45;;;;;;;22.85;60.88;98205.11;1762678;79;21191;-65
2021/06/15 10:09:24;;;;;;;6.95;2.70;;;;;;;22.82;60.04;98199.00;1767880;80;20983;-64
2021/06/15 10:11:52;;;;;;;5.17;2.13;;;;;;;22.59;60.30;98198.79;1772598;80;21111;-65
2021/06/15 10:14:21;;;;;;;5.58;2.77;;;;;;;22.51;60.59;98199.80;1754713;80;21058;-65
2021/06/15 10:16:49;;;;;;;4.75;2.50;;;;;;;22.59;60.14;98191.36;1781667;80;21002;-65
2021/06/15 10:19:16;;;;;;;5.35;2.52;;;;;;;22.76;60.52;98190.91;1762512;80;21125;-68
2021/06/15 10:21:42;;;;;;;3.77;2.50;;;;;;;22.94;61.11;98203.52;1752728;81;21054;-67
2021/06/15 10:24:10;;;;;;;3.40;2.35;;;;;;;23.02;59.97;98203.81;1752949;81;21077;-66
2021/06/15 10:26:37;;;;;;;4.42;2.10;;;;;;;22.96;59.62;98199.83;1752901;81;21030;-67
2021/06/15 10:29:12;;;;;;;2.85;2.05;;;;;;;22.97;59.63;98201.39;1775678;80;21545;-63
2021/06/15 10:31:40;;;;;;;;;;;;;;;23.03;59.01;98196.61;1759319;79;21135;-64
2021/06/15 10:34:07;;;;;;;4.05;2.10;;;;;;;23.18;59.54;98198.20;1738274;81;20103;-64
2021/06/15 10:36:39;;;;;;;2.85;2.25;;;;;;;23.24;58.06;98201.64;1785334;80;20968;-67
2021/06/15 10:39:10;;;;;;;4.12;2.33;;;;;;;23.25;58.80;98192.87;1785214;80;20931;-67
2021/06/15 10:41:37;;;;;;;3.35;2.30;;;;;;;23.31;58.06;98192.17;1785471;80;20903;-65
2021/06/15 10:44:04;;;;;;;5.30;2.47;;;;;;;23.36;58.57;98189.73;1785144;80;22776;-64
2021/06/15 10:46:36;;;;;;;3.67;2.17;;;;;;;23.47;59.01;98188.72;1754868;80;21058;-66
2021/06/15 10:49:07;;;;;;;3.17;2.12;;;;;;;23.58;58.49;98195.69;1785698;80;21370;-68
2021/06/15 10:51:45;;;;;;;3.70;2.27;;;;;;;23.62;57.18;98190.47;1763122;80;20847;-66
2021/06/15 10:54:35;;;;;;;3.37;2.15;;;;;;;23.58;55.97;98187.48;1783009;80;20891;-67
2021/06/15 10:57:23;;;;;;;7.08;2.27;;;;;;;23.55;56.90;98184.14;1784130;80;21739;-64
2021/06/15 11:00:15;;;;;;;2.70;2.30;;;;;;;23.53;56.98;98187.83;1784326;80;20966;-64
2021/06/15 11:02:47;;;;;;;3.37;2.95;;;;;;;23.40;56.41;98183.73;1782318;80;20958;-66
2021/06/15 11:05:43;;;;;;;5.65;2.10;;;;;;;23.18;56.82;98185.90;1778316;79;21031;-67
2021/06/15 11:08:22;;;;;;;2.90;1.92;;;;;;;;;;1785028;80;21485;-66
2021/06/15 11:10:58;;;;;;;6.60;2.77;;;;;;;23.09;58.01;98176.04;1785734;79;21123;-65
2021/06/15 11:13:46;;;;;;;4.55;2.10;;;;;;;23.30;58.01;98173.40;1784195;80;21101;-66
2021/06/15 11:16:41;;;;;;;5.25;2.30;;;;;;;23.44;56.42;98172.26;1783582;79;20974;-65
2021/06/15 11:19:19;;;;;;;3.15;2.25;;;;;;;23.39;56.39;98174.73;1783856;80;21146;-65
2021/06/15 11:22:02;;;;;;;4.83;2.52;;;;;;;23.19;57.09;98170.53;1784095;80;21610;-66
2021/06/15 11:24:48;;;;;;;4.58;2.00;;;;;;;;;;1783991;80;21155;-66
2021/06/15 11:27:26;;;;;;;3.98;2.22;;;;;;;22.91;58.39;98164.06;1822631;77;20908;-63
2021/06/15 11:29:54;;;;;;;3.50;2.17;;;;;;;22.77;58.56;98167.93;1782228;80;20861;-65
2021/06/15 11:32:30;;;;;;;3.00;2.10;;;;;;;22.66;58.94;98166.95;1783120;80;20979;-65
2021/06/15 11:35:03;;;;;;;2.72;1.98;;;;;;;22.61;58.84;98165.12;1781571;80;21098;-63
2021/06/15 11:37:43;;;;;;;4.35;2.10;;;;;;;22.88;58.97;98160.69;1781757;79;21943;-65
2021/06/15 11:40:33;;;;;;;4.20;2.10;;;;;;;23.31;58.07;98151.76;1792729;78;21466;-64
2021/06/15 11:43:17;;;;;;;4.67;2.22;;;;;;;23.58;57.73;98153.31;1794012;78;21054;-65
2021/06/15 11:45:51;;;;;;;2.85;2.05;;;;;;;23.61;57.40;98155.31;1807975;78;20963;-64
2021/06/15 11:48:35;;;;;;;6.10;2.05;;;;;;;23.52;57.32;98152.08;1792067;80;21001;-65
2021/06/15 11:51:03;;;;;;;3.75;1.80;;;;;;;23.47;56.95;98151.03;1791980;79;21610;-65
2021/06/15 11:53:36;;;;;;;1.75;1.65;;;;;;;23.54;56.03;98147.02;1792302;80;20975;-64
2021/06/15 11:56:06;;;;;;;2.72;1.87;;;;;;;23.79;55.77;98141.27;1772122;80;20864;-66
2021/06/15 11:58:35;;;;;;;2.77;1.80;;;;;;;24.16;55.00;98131.75;1754595;81;21478;-66
2021/06/15 12:01:10;;;;;;;4.05;1.70;;;;;;;24.31;53.52;98121.14;1754384;81;21453;-65
2021/06/15 12:03:38;;;;;;;2.08;1.60;;;;;;;24.20;53.87;98122.42;1754463;81;21183;-66
2021/06/15 12:06:05;;;;;;;3.80;1.60;;;;;;;24.00;54.26;98125.70;1754551;81;20899;-67
2021/06/15 12:08:37;;;;;;;2.10;1.90;;;;;;;23.83;54.17;98121.61;1754555;81;21015;-65
2021/06/15 12:11:09;;;;;;;4.00;1.47;;;;;;;23.84;53.57;98117.69;1754593;81;20903;-65
2021/06/15 12:13:37;;;;;;;2.42;1.60;;;;;;;23.76;54.32;98116.05;1754595;81;21337;-65
2021/06/15 12:16:13;;;;;;;2.27;1.65;;;;;;;24.00;55.06;98117.49;1752149;81;21135;-69
2021/06/15 12:18:45;;;;;;;3.12;1.50;;;;;;;24.39;54.20;98112.63;1746473;82;21012;-66
2021/06/15 12:21:17;;;;;;;1.92;1.60;;;;;;;24.86;52.37;98098.74;1745755;82;20863;-67
2021/06/15 12:23:56;;;;;;;3.02;1.82;;;;;;;25.34;50.04;98103.54;1750375;79;20964;-67
2021/06/15 12:26:36;;;;;;;3.15;1.60;;;;;;;25.48;50.03;98100.89;1746812;80;21077;-68
2021/06/15 12:29:06;;;;;;;4.67;1.60;;;;;;;25.56;49.70;98100.53;1745098;82;21118;-65
2021/06/15 14:35:43;;;;;;;1.70;1.17;;;;;;;27.34;42.21;98006.80;1871622;76;22936;-65
2021/06/15 14:38:12;;;;;;;3.22;1.05;;;;;;;27.58;41.10;98003.14;1827866;78;20868;-67
2021/06/15 14:40:39;;;;;;;5.00;1.20;;;;;;;27.70;41.64;97999.93;1827865;78;21059;-66
2021/06/15 14:43:06;;;;;;;3.90;1.00;;;;;;;27.91;42.23;97999.62;1827754;78;20904;-66
2021/06/15 14:45:33;;;;;;;2.00;1.30;;;;;;;28.13;41.57;97996.31;1827838;78;20892;-67
2021/06/15 14:48:00;;;;;;;4.08;1.60;;;;;;;28.34;41.39;97997.52;1828141;78;20845;-67
2021/06/15 14:50:27;;;;;;;3.08;1.20;;;;;;;28.36;40.09;97995.13;1827870;78;20924;-67
2021/06/15 14:52:53;;;;;;;1.35;1.20;;;;;;;28.18;39.71;97995.89;1828148;78;21360;-67
2021/06/15 14:55:20;;;;;;;4.70;1.22;;;;;;;28.03;40.71;97994.42;1827609;78;20868;-65
2021/06/15 14:57:47;;;;;;;2.75;1.27;;;;;;;28.07;40.80;97991.06;1827812;78;20849;-65
2021/06/15 15:00:16;;;;;;;2.22;1.10;;;;;;;28.13;40.72;97994.16;1827815;78;20967;-65
2021/06/15 15:02:43;;;;;;;3.22;1.40;;;;;;;28.18;39.87;97998.64;1827830;78;21390;-69
2021/06/15 15:05:11;;;;;;;4.45;1.40;;;;;;;28.17;39.64;97997.68;1827966;78;21111;-67
2021/06/15 15:07:43;;;;;;;2.47;1.27;;;;;;;28.01;39.96;97998.17;1827832;78;20880;-70
2021/06/15 15:10:11;;;;;;;3.12;1.07;;;;;;;27.85;40.69;97997.88;1827734;78;21443;-65
2021/06/15 15:12:38;;;;;;;4.60;1.10;;;;;;;27.81;40.53;97991.63;1827791;78;21474;-65
2021/06/15 15:15:08;;;;;;;3.15;1.25;;;;;;;27.92;40.09;97995.07;1827742;78;20923;-65
2021/06/15 15:17:35;;;;;;;2.62;1.40;;;;;;;27.97;40.28;97993.86;1827690;78;21086;-66
2021/06/15 15:20:05;;;;;;;2.47;1.12;;;;;;;28.06;40.58;97989.49;1828028;78;20903;-65
2021/06/15 15:22:32;;;;;;;5.65;1.60;;;;;;;28.16;40.19;97983.13;1827806;78;21396;-65
2021/06/15 15:25:01;;;;;;;2.15;1.25;;;;;;;28.25;40.54;97977.93;1827770;78;20970;-65
2021/06/15 15:27:27;;;;;;;2.15;1.12;;;;;;;28.25;39.16;97979.89;1827791;78;20927;-66
2021/06/15 15:29:55;;;;;;;1.75;0.90;;;;;;;28.14;39.70;97980.00;1827993;78;21856;-65
2021/06/15 15:32:23;;;;;;;4.72;1.10;;;;;;;28.12;39.67;97976.84;1827725;78;20892;-64
2021/06/15 15:34:50;;;;;;;2.60;1.02;;;;;;;28.15;39.50;97978.80;1821545;78;20885;-64
2021/06/15 15:37:17;;;;;;;1.50;1.00;;;;;;;28.18;39.29;97981.33;1816519;78;20924;-68
2021/06/15 15:39:44;;;;;;;1.47;0.90;;;;;;;27.94;38.99;97987.77;1816434;79;20844;-67
2021/06/15 15:42:10;;;;;;;1.98;0.93;;;;;;;27.42;39.98;97983.59;1816841;78;21092;-69
2021/06/15 15:44:38;;;;;;;1.55;1.10;;;;;;;26.79;41.13;97988.72;1816483;79;20963;-64
2021/06/15 15:47:05;;;;;;;1.10;1.00;;;;;;;26.21;42.50;97980.16;1816058;78;20952;-67
2021/06/15 15:49:32;;;;;;;3.58;1.45;;;;;;;25.74;43.55;97976.56;1815933;78;21388;-65
2021/06/15 15:51:59;;;;;;;2.98;1.30;;;;;;;25.25;44.63;97977.78;1816006;78;20904;-66
2021/06/15 15:54:26;;;;;;;4.08;1.20;;;;;;;24.88;45.83;97971.77;1815920;78;21069;-66
2021/06/15 15:56:53;;;;;;;1.82;1.35;;;;;;;24.64;46.83;97976.48;1815757;78;20857;-64
2021/06/15 15:59:20;;;;;;;2.72;1.30;;;;;;;24.45;46.85;97978.34;1815962;78;20861;-64
2021/06/15 16:01:47;;;;;;;1.72;1.22;;;;;;;24.23;47.43;97973.11;1816230;78;20908;-63
2021/06/15 16:04:14;;;;;;;4.22;1.27;;;;;;;24.04;47.22;97978.20;1815978;78;20877;-67
2021/06/15 16:06:43;;;;;;;3.33;1.52;;;;;;;23.84;47.61;97978.21;1815935;78;20872;-67
2021/06/15 16:09:12;;;;;;;2.47;1.40;;;;;;;23.67;48.32;97975.52;1815770;78;20904;-69
2021/06/15 16:11:39;;;;;;;3.33;1.50;;;;;;;23.55;48.72;97979.12;1816127;78;20876;-67
2021/06/15 16:14:05;;;;;;;3.17;1.30;;;;;;;23.37;49.16;97976.76;1816260;79;21517;-69
2021/06/15 16:16:32;;;;;;;4.30;1.35;;;;;;;23.24;49.41;97978.16;1815849;79;20876;-67
2021/06/15 16:18:59;;;;;;;3.50;1.70;;;;;;;23.12;49.95;97979.98;1816134;78;21427;-68
2021/06/15 16:21:26;;;;;;;2.52;1.60;;;;;;;23.04;50.65;97972.84;1815874;78;20959;-68
2021/06/15 16:23:53;;;;;;;4.67;1.85;;;;;;;22.99;50.84;97977.27;1815941;78;20850;-68
2021/06/15 16:26:20;;;;;;;4.50;1.90;;;;;;;22.90;51.35;97980.86;1815918;79;20877;-68
2021/06/15 16:28:46;;;;;;;2.90;1.50;;;;;;;22.84;51.14;97976.90;1816188;79;21431;-66
2021/06/15 16:31:13;;;;;;;2.58;1.60;;;;;;;22.79;51.23;97979.95;1815881;78;21885;-66
2021/06/15 16:33:41;;;;;;;2.15;1.50;;;;;;;22.75;51.33;97983.19;1815854;78;20861;-68
2021/06/15 16:36:08;;;;;;;3.70;1.60;;;;;;;22.70;51.72;97978.65;1826845;78;20965;-66
2021/06/15 16:38:34;;;;;;;6.10;1.35;;;;;;;22.64;51.78;97978.17;1827600;78;20876;-66
2021/06/15 16:41:01;;;;;;;3.87;1.62;;;;;;;22.56;52.12;97983.31;1827492;78;20876;-63
2021/06/15 16:43:29;;;;;;;4.75;1.50;;;;;;;22.48;52.30;97981.05;1827565;78;21859;-65
2021/06/15 16:45:56;;;;;;;1.67;1.17;;;;;;;22.39;52.48;97982.47;1827263;78;20963;-65
2021/06/15 16:48:23;;;;;;;4.30;1.30;;;;;;;22.32;52.47;97983.72;1827753;78;21410;-66
2021/06/15 16:50:50;;;;;;;3.27;1.40;;;;;;;22.26;52.68;97983.81;1827384;78;20876;-65
2021/06/15 16:53:17;;;;;;;2.37;1.45;;;;;;;22.17;52.79;97982.71;1789016;80;21461;-65
2021/06/15 16:55:46;;;;;;;2.35;1.30;;;;;;;22.08;53.21;97986.84;1788454;80;21001;-64
2021/06/15 16:58:16;;;;;;;4.10;1.55;;;;;;;22.03;53.35;97983.05;1788274;80;20883;-62
2021/06/15 17:00:49;;;;;;;2.83;1.30;;;;;;;21.99;53.61;97989.03;1788654;80;20884;-66
2021/06/15 17:03:12;;;;;;;2.62;1.40;;;;;;;21.98;53.51;97987.45;1787624;80;20899;-66
2021/06/15 17:05:39;;;;;;;2.30;1.42;;;;;;;21.96;53.71;97987.02;1788599;80;20962;-66
2021/06/15 17:08:07;;;;;;;2.20;1.40;;;;;;;21.95;54.25;97994.41;1788391;80;20899;-66
2021/06/15 17:10:34;;;;;;;3.20;1.52;;;;;;;21.92;54.71;97994.37;1788424;80;20876;-67
2021/06/15 17:13:01;;;;;;;2.45;1.57;;;;;;;21.85;54.93;97994.25;1788495;80;21395;-66
